createdAt,value
2023-02-24T00:02:05.601Z,15.63
2023-02-24T00:04:39.412Z,15.10
2023-02-24T00:07:11.320Z,16.33
2023-02-24T00:09:39.033Z,15.98
2023-02-24T00:12:11.148Z,16.27
2023-02-24T00:14:40.071Z,15.23
2023-02-24T00:17:10.862Z,16.17
2023-02-24T00:19:37.877Z,15.40
2023-02-24T00:22:07.836Z,16.63
2023-02-24T00:24:35.486Z,17.90
2023-02-24T00:27:07.501Z,17.77
2023-02-24T00:29:34.509Z,19.95
2023-02-24T00:32:02.464Z,29.23
2023-02-24T00:34:31.361Z,27.50
2023-02-24T00:36:58.612Z,29.10
2023-02-24T00:39:33.312Z,29.90
2023-02-24T00:42:06.655Z,21.38
2023-02-24T00:44:41.771Z,21.58
2023-02-24T00:47:10.482Z,22.08
2023-02-24T00:49:42.615Z,20.60
2023-02-24T00:52:13.735Z,19.73
2023-02-24T00:54:41.465Z,16.23
2023-02-24T00:57:08.467Z,15.35
2023-02-24T00:59:36.908Z,14.82
2023-02-24T01:02:04.256Z,13.57
2023-02-24T01:04:31.053Z,13.25
2023-02-24T01:07:00.647Z,11.98
2023-02-24T01:09:29.639Z,12.60
2023-02-24T01:12:22.390Z,11.07
2023-02-24T01:14:51.686Z,12.02
2023-02-24T01:17:20.614Z,10.35
2023-02-24T01:19:49.271Z,9.35
2023-02-24T01:22:18.479Z,8.85
2023-02-24T01:24:45.638Z,9.50
2023-02-24T01:27:13.897Z,9.60
2023-02-24T01:29:40.731Z,9.02
2023-02-24T01:32:17.066Z,9.13
2023-02-24T01:34:45.157Z,9.25
2023-02-24T01:37:16.254Z,11.13
2023-02-24T01:39:47.004Z,11.25
2023-02-24T01:42:16.929Z,11.50
2023-02-24T01:44:43.671Z,12.40
2023-02-24T01:47:11.279Z,10.73
2023-02-24T01:49:42.289Z,11.80
2023-02-24T01:52:20.541Z,12.68
2023-02-24T01:54:54.966Z,10.98
2023-02-24T01:57:24.444Z,12.43
2023-02-24T01:59:54.542Z,12.60
2023-02-24T02:02:23.342Z,12.70
2023-02-24T02:04:56.959Z,11.60
2023-02-24T02:07:26.580Z,12.00
2023-02-24T02:12:22.536Z,12.90
2023-02-24T02:14:53.464Z,16.15
2023-02-24T02:17:48.934Z,15.60
2023-02-24T02:20:55.670Z,16.35
2023-02-24T02:23:50.116Z,18.35
2023-02-24T02:26:25.772Z,17.63
2023-02-24T02:29:11.255Z,17.80
2023-02-24T02:31:50.783Z,16.40
2023-02-24T02:34:40.947Z,17.58
2023-02-24T02:37:19.786Z,20.58
2023-02-24T02:40:09.050Z,25.90
2023-02-24T02:42:44.445Z,20.83
2023-02-24T02:45:23.695Z,22.75
2023-02-24T02:47:59.285Z,20.73
2023-02-24T02:51:17.112Z,20.30
2023-02-24T02:53:55.800Z,21.55
2023-02-24T02:56:30.554Z,21.25
2023-02-24T02:59:00.668Z,20.48
2023-02-24T03:01:31.953Z,21.38
2023-02-24T03:04:07.289Z,20.75
2023-02-24T03:06:37.672Z,20.10
2023-02-24T03:09:15.898Z,21.95
2023-02-24T03:11:49.174Z,20.60
2023-02-24T03:14:18.918Z,20.98
2023-02-24T03:16:49.196Z,21.23
2023-02-24T03:19:20.496Z,20.15
2023-02-24T03:21:55.986Z,20.58
2023-02-24T03:24:24.348Z,20.98
2023-02-24T03:26:56.378Z,21.33
2023-02-24T03:29:39.608Z,20.83
2023-02-24T03:32:13.150Z,21.70
2023-02-24T03:34:48.528Z,21.75
2023-02-24T03:37:15.389Z,21.63
2023-02-24T03:39:42.121Z,21.13
2023-02-24T03:42:14.159Z,21.13
2023-02-24T03:44:40.809Z,23.38
2023-02-24T03:47:09.564Z,23.08
2023-02-24T03:49:38.323Z,25.23
2023-02-24T03:52:40.848Z,23.98
2023-02-24T03:55:21.319Z,24.45
2023-02-24T03:58:05.427Z,23.70
2023-02-24T04:00:46.345Z,23.73
2023-02-24T04:03:18.706Z,24.27
2023-02-24T04:05:55.866Z,24.23
2023-02-24T04:08:24.698Z,26.02
2023-02-24T04:10:53.835Z,25.92
2023-02-24T04:13:47.068Z,23.92
2023-02-24T04:16:28.858Z,22.42
2023-02-24T04:19:05.501Z,24.05
2023-02-24T04:21:34.588Z,20.45
2023-02-24T04:24:11.425Z,20.83
2023-02-24T04:26:42.790Z,19.15
2023-02-24T04:29:13.811Z,16.55
2023-02-24T04:31:40.800Z,16.50
2023-02-24T04:34:09.378Z,15.88
2023-02-24T04:36:36.028Z,15.77
2023-02-24T04:39:04.962Z,14.70
2023-02-24T04:41:31.616Z,15.75
2023-02-24T04:43:58.267Z,15.60
2023-02-24T04:46:24.868Z,14.55
2023-02-24T04:48:51.470Z,14.00
2023-02-24T04:51:20.785Z,13.50
2023-02-24T04:53:49.421Z,13.68
2023-02-24T04:56:16.055Z,13.57
2023-02-24T04:58:45.124Z,12.52
2023-02-24T05:01:11.746Z,13.18
2023-02-24T05:03:42.292Z,13.75
2023-02-24T05:06:15.958Z,12.65
2023-02-24T05:08:43.775Z,9.65
2023-02-24T05:11:18.172Z,10.70
2023-02-24T05:13:45.763Z,9.93
2023-02-24T05:16:15.389Z,8.38
2023-02-24T05:18:42.647Z,6.85
2023-02-24T05:21:33.676Z,6.50
2023-02-24T05:24:06.520Z,7.65
2023-02-24T05:26:42.919Z,7.00
2023-02-24T05:29:11.196Z,5.82
2023-02-24T05:31:38.306Z,6.07
2023-02-24T05:34:07.584Z,6.57
2023-02-24T05:36:40.309Z,7.05
2023-02-24T05:39:12.072Z,6.55
2023-02-24T05:41:41.802Z,6.47
2023-02-24T05:44:13.268Z,6.07
2023-02-24T05:46:44.499Z,6.20
2023-02-24T05:49:15.377Z,5.88
2023-02-24T05:51:54.454Z,5.97
2023-02-24T05:54:22.812Z,6.18
2023-02-24T05:56:49.529Z,5.82
2023-02-24T05:59:21.346Z,6.63
2023-02-24T06:01:49.150Z,6.22
2023-02-24T06:04:39.162Z,6.15
2023-02-24T06:07:18.780Z,6.57
2023-02-24T06:09:53.358Z,6.57
2023-02-24T06:12:25.842Z,6.75
2023-02-24T06:14:53.154Z,6.72
2023-02-24T06:17:20.857Z,5.72
2023-02-24T06:19:50.846Z,6.43
2023-02-24T06:22:19.905Z,6.15
2023-02-24T06:24:49.174Z,5.75
2023-02-24T06:29:49.859Z,6.43
2023-02-24T06:32:21.398Z,5.80
2023-02-24T06:34:48.098Z,6.32
2023-02-24T06:37:15.731Z,6.72
2023-02-24T06:39:43.190Z,6.45
2023-02-24T06:42:11.842Z,4.60
2023-02-24T06:44:40.262Z,5.30
2023-02-24T06:47:10.377Z,5.80
2023-02-24T06:49:37.488Z,6.05
2023-02-24T06:52:04.688Z,4.65
2023-02-24T06:54:35.657Z,5.30
2023-02-24T06:57:06.314Z,6.10
2023-02-24T06:59:34.190Z,6.15
2023-02-24T07:02:03.298Z,5.72
2023-02-24T07:04:30.209Z,5.85
2023-02-24T07:07:02.887Z,4.72
2023-02-24T07:09:31.116Z,5.70
2023-02-24T07:11:58.752Z,4.78
2023-02-24T07:14:28.008Z,4.93
2023-02-24T07:16:55.297Z,5.10
2023-02-24T07:19:25.897Z,4.40
2023-02-24T07:22:03.396Z,4.45
2023-02-24T07:24:40.461Z,3.72
2023-02-24T07:27:12.448Z,4.50
2023-02-24T07:29:39.306Z,4.20
2023-02-24T07:32:08.619Z,4.35
2023-02-24T07:34:39.596Z,3.67
2023-02-24T07:37:07.896Z,4.22
2023-02-24T07:39:36.879Z,4.35
2023-02-24T07:42:09.806Z,3.30
2023-02-24T07:44:36.346Z,4.60
2023-02-24T07:47:07.541Z,4.22
2023-02-24T07:49:34.495Z,4.00
2023-02-24T07:52:01.960Z,4.88
2023-02-24T07:54:29.995Z,4.45
2023-02-24T07:56:59.026Z,3.58
2023-02-24T07:59:32.233Z,3.33
2023-02-24T08:01:59.311Z,3.70
2023-02-24T08:04:30.516Z,3.55
2023-02-24T08:06:58.921Z,3.17
2023-02-24T08:09:45.690Z,3.83
2023-02-24T08:12:23.779Z,4.07
2023-02-24T08:14:52.918Z,3.78
2023-02-24T08:17:26.200Z,3.35
2023-02-24T08:20:14.741Z,4.03
2023-02-24T08:22:51.880Z,3.47
2023-02-24T08:25:35.431Z,4.22
2023-02-24T08:28:08.313Z,3.88
2023-02-24T08:30:40.164Z,3.90
2023-02-24T08:33:09.941Z,4.00
2023-02-24T08:35:39.036Z,4.28
2023-02-24T08:38:09.742Z,3.97
2023-02-24T08:40:53.154Z,4.40
2023-02-24T08:43:28.802Z,4.50
2023-02-24T08:46:03.662Z,3.45
2023-02-24T08:48:38.848Z,4.68
2023-02-24T08:51:11.217Z,4.70
2023-02-24T08:53:40.620Z,4.55
2023-02-24T08:56:11.385Z,3.50
2023-02-24T08:58:49.038Z,3.72
2023-02-24T09:01:24.011Z,4.20
2023-02-24T09:03:57.905Z,3.95
2023-02-24T09:06:43.718Z,4.88
2023-02-24T09:09:17.663Z,4.03
2023-02-24T09:12:05.748Z,5.07
2023-02-24T09:14:37.732Z,4.55
2023-02-24T09:17:10.927Z,4.07
2023-02-24T09:19:51.900Z,4.82
2023-02-24T09:22:33.401Z,4.28
2023-02-24T09:25:24.034Z,4.47
2023-02-24T09:28:07.881Z,4.50
2023-02-24T09:30:55.157Z,4.57
2023-02-24T09:33:38.670Z,4.35
2023-02-24T09:36:12.738Z,5.07
2023-02-24T09:39:01.735Z,4.35
2023-02-24T09:41:34.080Z,4.65
2023-02-24T09:44:18.123Z,4.47
2023-02-24T09:47:13.400Z,3.97
2023-02-24T09:50:03.935Z,4.65
2023-02-24T09:52:40.844Z,4.40
2023-02-24T09:56:03.000Z,3.60
2023-02-24T09:59:00.738Z,3.50
2023-02-24T10:01:36.388Z,3.67
2023-02-24T10:04:21.112Z,3.13
2023-02-24T10:06:58.775Z,3.63
2023-02-24T10:09:33.525Z,3.90
2023-02-24T10:12:05.346Z,3.97
2023-02-24T10:15:17.136Z,3.95
2023-02-24T10:17:49.946Z,4.10
2023-02-24T10:20:41.006Z,4.35
2023-02-24T10:23:56.460Z,3.78
2023-02-24T10:26:51.235Z,4.43
2023-02-24T10:29:45.496Z,4.60
2023-02-24T10:32:31.595Z,4.45
2023-02-24T10:34:58.146Z,4.35
2023-02-24T10:37:29.445Z,4.55
2023-02-24T10:39:59.455Z,4.00
2023-02-24T10:42:34.331Z,4.90
2023-02-24T10:45:25.110Z,3.85
2023-02-24T10:47:59.317Z,4.90
2023-02-24T10:50:32.093Z,4.55
2023-02-24T10:53:09.922Z,4.13
2023-02-24T10:55:53.468Z,3.95
2023-02-24T10:58:44.551Z,4.00
2023-02-24T11:01:27.774Z,4.40
2023-02-24T11:04:22.474Z,4.30
2023-02-24T11:06:52.728Z,3.95
2023-02-24T11:09:27.443Z,4.03
2023-02-24T11:12:24.656Z,4.43
2023-02-24T11:15:29.008Z,4.55
2023-02-24T11:17:59.536Z,4.60
2023-02-24T11:20:49.349Z,4.40
2023-02-24T11:23:22.193Z,3.85
2023-02-24T11:25:53.457Z,4.15
2023-02-24T11:28:32.251Z,4.50
2023-02-24T11:31:35.964Z,5.28
2023-02-24T11:34:31.535Z,5.30
2023-02-24T11:37:25.433Z,4.80
2023-02-24T11:40:01.325Z,4.35
2023-02-24T11:42:46.380Z,4.38
2023-02-24T11:45:46.927Z,3.97
2023-02-24T11:48:20.083Z,4.00
2023-02-24T11:50:56.198Z,4.97
2023-02-24T11:53:36.796Z,4.18
2023-02-24T11:56:11.882Z,4.07
2023-02-24T11:59:12.340Z,4.18
2023-02-24T12:01:50.664Z,4.07
2023-02-24T12:04:29.169Z,3.78
2023-02-24T12:07:23.571Z,4.37
2023-02-24T12:10:14.115Z,3.90
2023-02-24T12:12:51.268Z,3.88
2023-02-24T12:15:32.262Z,3.95
2023-02-24T12:18:17.654Z,3.78
2023-02-24T12:20:50.579Z,4.07
2023-02-24T12:23:23.232Z,4.18
2023-02-24T12:26:18.393Z,4.85
2023-02-24T12:29:03.375Z,4.03
2023-02-24T12:31:39.007Z,4.70
2023-02-24T12:34:08.571Z,5.18
2023-02-24T12:37:07.525Z,4.90
2023-02-24T12:39:43.143Z,5.20
2023-02-24T12:42:18.977Z,5.53
2023-02-24T12:44:52.519Z,4.68
2023-02-24T12:47:49.951Z,4.93
2023-02-24T12:50:39.693Z,5.40
2023-02-24T12:53:19.180Z,6.75
2023-02-24T12:58:47.781Z,5.72
2023-02-24T13:01:36.881Z,5.25
2023-02-24T13:04:12.393Z,5.38
2023-02-24T13:07:03.935Z,4.95
2023-02-24T13:09:48.763Z,6.03
2023-02-24T13:12:15.191Z,6.05
2023-02-24T13:14:42.992Z,5.53
2023-02-24T13:17:20.310Z,5.50
2023-02-24T13:19:48.747Z,5.60
2023-02-24T13:22:16.843Z,6.38
2023-02-24T13:24:55.274Z,5.43
2023-02-24T13:27:24.765Z,6.20
2023-02-24T13:29:55.615Z,6.72
2023-02-24T13:32:34.246Z,7.63
2023-02-24T13:35:04.640Z,7.50
2023-02-24T13:37:37.630Z,7.68
2023-02-24T13:40:19.396Z,7.15
2023-02-24T13:42:58.331Z,7.40
2023-02-24T13:45:30.848Z,7.68
2023-02-24T13:48:02.269Z,7.53
2023-02-24T13:50:51.822Z,8.65
2023-02-24T13:53:52.106Z,8.63
2023-02-24T13:56:40.092Z,7.95
2023-02-24T13:59:33.452Z,7.20
2023-02-24T14:02:28.418Z,8.07
2023-02-24T14:04:57.969Z,7.45
2023-02-24T14:10:25.219Z,7.60
2023-02-24T14:13:02.918Z,6.90
2023-02-24T14:15:30.402Z,6.93
2023-02-24T14:18:05.462Z,7.28
2023-02-24T14:20:37.842Z,6.03
2023-02-24T14:23:23.867Z,5.65
2023-02-24T14:26:18.469Z,6.40
2023-02-24T14:28:55.064Z,5.22
2023-02-24T14:31:23.278Z,6.40
2023-02-24T14:33:58.729Z,6.43
2023-02-24T14:36:30.497Z,5.80
2023-02-24T14:39:17.687Z,6.07
2023-02-24T14:41:45.554Z,4.97
2023-02-24T14:44:24.290Z,5.53
2023-02-24T14:46:58.179Z,4.80
2023-02-24T14:49:30.978Z,5.18
2023-02-24T14:52:06.887Z,6.00
2023-02-24T14:55:05.130Z,4.45
2023-02-24T14:57:40.466Z,4.72
2023-02-24T15:00:17.576Z,4.82
2023-02-24T15:02:51.566Z,4.75
2023-02-24T15:05:18.424Z,5.00
2023-02-24T15:07:45.512Z,5.07
2023-02-24T15:10:21.329Z,5.28
2023-02-24T15:12:57.792Z,5.05
2023-02-24T15:15:29.519Z,5.07
2023-02-24T15:18:02.946Z,4.57
2023-02-24T15:20:38.062Z,4.70
2023-02-24T15:23:04.674Z,4.32
2023-02-24T15:25:43.506Z,4.55
2023-02-24T15:28:26.416Z,5.18
2023-02-24T15:31:00.956Z,4.85
2023-02-24T15:33:34.237Z,4.68
2023-02-24T15:36:01.310Z,3.97
2023-02-24T15:38:35.250Z,4.85
2023-02-24T15:41:04.355Z,4.38
2023-02-24T15:43:37.468Z,4.75
2023-02-24T15:46:23.301Z,4.63
2023-02-24T15:48:52.539Z,5.05
2023-02-24T15:51:38.009Z,5.15
2023-02-24T15:54:11.173Z,4.55
2023-02-24T15:56:37.719Z,5.18
2023-02-24T15:59:05.924Z,4.53
2023-02-24T16:01:33.211Z,4.32
2023-02-24T16:04:00.680Z,4.38
2023-02-24T16:06:28.513Z,4.70
2023-02-24T16:08:57.154Z,4.68
2023-02-24T16:11:31.634Z,4.97
2023-02-24T16:14:00.544Z,3.85
2023-02-24T16:16:27.414Z,4.47
2023-02-24T16:18:54.179Z,5.20
2023-02-24T16:21:20.810Z,6.15
2023-02-24T16:23:47.468Z,4.97
2023-02-24T16:26:20.087Z,4.32
2023-02-24T16:28:57.578Z,5.05
2023-02-24T16:31:26.132Z,5.03
2023-02-24T16:33:55.805Z,4.97
2023-02-24T16:36:25.194Z,4.60
2023-02-24T16:41:18.455Z,5.15
2023-02-24T16:43:44.998Z,4.53
2023-02-24T16:46:18.176Z,4.97
2023-02-24T16:48:47.329Z,5.10
2023-02-24T16:51:13.978Z,4.90
2023-02-24T16:53:40.609Z,6.38
2023-02-24T16:56:07.585Z,5.78
2023-02-24T16:58:34.529Z,5.82
2023-02-24T17:01:02.735Z,5.43
2023-02-24T17:03:41.435Z,5.97
2023-02-24T17:06:08.361Z,6.38
2023-02-24T17:08:34.994Z,5.05
2023-02-24T17:11:02.098Z,5.88
2023-02-24T17:13:28.671Z,5.57
2023-02-24T17:15:56.970Z,6.00
2023-02-24T17:18:24.834Z,6.40
2023-02-24T17:20:51.687Z,6.82
2023-02-24T17:23:18.393Z,6.57
2023-02-24T17:25:46.135Z,7.35
2023-02-24T17:28:12.700Z,7.40
2023-02-24T17:30:40.120Z,7.07
2023-02-24T17:33:07.184Z,8.68
2023-02-24T17:35:33.669Z,8.50
2023-02-24T17:38:00.241Z,9.63
2023-02-24T17:40:26.881Z,8.73
2023-02-24T17:42:53.353Z,10.75
2023-02-24T17:45:20.148Z,11.07
2023-02-24T17:47:46.720Z,9.80
2023-02-24T17:50:13.346Z,10.55
2023-02-24T17:52:40.572Z,11.32
2023-02-24T17:55:07.950Z,11.18
2023-02-24T17:57:35.594Z,11.15
2023-02-24T18:00:02.594Z,12.75
2023-02-24T18:02:29.340Z,11.98
2023-02-24T18:04:56.770Z,12.05
2023-02-24T18:07:25.096Z,11.13
2023-02-24T18:09:51.873Z,10.93
2023-02-24T18:12:20.689Z,9.82
2023-02-24T18:14:56.258Z,8.73
2023-02-24T18:17:29.408Z,7.82
2023-02-24T18:19:56.033Z,6.78
2023-02-24T18:22:23.121Z,7.13
2023-02-24T18:24:49.936Z,6.70
2023-02-24T18:27:17.952Z,7.07
2023-02-24T18:29:44.595Z,6.10
2023-02-24T18:32:11.391Z,5.90
2023-02-24T18:34:38.347Z,7.00
2023-02-24T18:37:04.854Z,7.50
2023-02-24T18:39:31.418Z,8.18
2023-02-24T18:41:59.580Z,8.60
2023-02-24T18:44:26.376Z,9.48
2023-02-24T18:46:52.961Z,10.65
2023-02-24T18:49:19.664Z,11.60
2023-02-24T18:51:48.593Z,11.10
2023-02-24T18:54:15.685Z,11.85
2023-02-24T18:56:42.654Z,12.55
2023-02-24T18:59:09.270Z,12.38
2023-02-24T19:01:38.684Z,13.45
2023-02-24T19:06:34.371Z,13.60
2023-02-24T19:09:11.498Z,12.55
2023-02-24T19:11:40.475Z,12.52
2023-02-24T19:14:07.535Z,13.25
2023-02-24T19:16:34.850Z,13.02
2023-02-24T19:19:03.721Z,13.65
2023-02-24T19:21:32.428Z,14.15
2023-02-24T19:24:03.903Z,14.02
2023-02-24T19:26:30.733Z,14.82
2023-02-24T19:28:58.063Z,14.65
2023-02-24T19:31:27.491Z,13.90
2023-02-24T19:33:56.319Z,12.77
2023-02-24T19:36:24.169Z,9.10
2023-02-24T19:38:51.019Z,7.90
2023-02-24T19:41:18.083Z,5.18
2023-02-24T19:43:44.588Z,4.22
2023-02-24T19:46:13.352Z,3.58
2023-02-24T19:48:40.708Z,3.75
2023-02-24T19:51:21.887Z,4.05
2023-02-24T19:53:55.358Z,2.65
2023-02-24T19:56:26.542Z,2.00
2023-02-24T19:58:58.577Z,2.55
2023-02-24T20:01:29.563Z,2.35
2023-02-24T20:03:58.231Z,1.85
2023-02-24T20:06:37.737Z,2.60
2023-02-24T20:09:12.189Z,1.95
2023-02-24T20:11:39.351Z,1.42
2023-02-24T20:14:07.708Z,2.10
2023-02-24T20:16:37.193Z,2.30
2023-02-24T20:19:05.876Z,2.50
2023-02-24T20:21:33.794Z,2.53
2023-02-24T20:24:02.275Z,2.58
2023-02-24T20:26:29.287Z,2.55
2023-02-24T20:28:59.111Z,2.42
2023-02-24T20:31:26.146Z,2.50
2023-02-24T20:33:52.964Z,2.55
2023-02-24T20:36:23.757Z,2.22
2023-02-24T20:38:51.215Z,2.25
2023-02-24T20:41:19.079Z,2.75
2023-02-24T20:43:45.717Z,2.28
2023-02-24T20:46:17.483Z,3.08
2023-02-24T20:48:44.509Z,3.03
2023-02-24T20:51:12.415Z,2.92
2023-02-24T20:53:55.629Z,3.00
2023-02-24T20:56:25.605Z,3.22
2023-02-24T20:59:00.002Z,2.80
2023-02-24T21:01:28.015Z,3.08
2023-02-24T21:03:54.551Z,2.38
2023-02-24T21:06:21.306Z,2.55
2023-02-24T21:08:48.035Z,3.15
2023-02-24T21:11:17.027Z,3.00
2023-02-24T21:13:46.018Z,2.65
2023-02-24T21:16:14.146Z,2.70
2023-02-24T21:18:42.456Z,2.67
2023-02-24T21:21:09.961Z,2.42
2023-02-24T21:23:38.082Z,2.55
2023-02-24T21:26:05.685Z,2.78
2023-02-24T21:28:32.587Z,3.22
2023-02-24T21:30:59.784Z,3.38
2023-02-24T21:33:26.407Z,3.08
2023-02-24T21:36:06.399Z,2.95
2023-02-24T21:38:36.330Z,2.78
2023-02-24T21:41:08.311Z,3.92
2023-02-24T21:43:35.242Z,2.72
2023-02-24T21:46:06.656Z,2.97
2023-02-24T21:48:33.550Z,2.97
2023-02-24T21:51:06.219Z,2.78
2023-02-24T21:53:35.392Z,2.92
2023-02-24T21:56:10.821Z,3.60
2023-02-24T21:58:39.153Z,2.92
2023-02-24T22:01:14.558Z,3.88
2023-02-24T22:03:41.388Z,4.05
2023-02-24T22:06:11.331Z,3.20
2023-02-24T22:08:43.063Z,3.92
2023-02-24T22:11:12.421Z,3.38
2023-02-24T22:16:08.801Z,5.00
2023-02-24T22:18:35.404Z,4.80
2023-02-24T22:21:07.439Z,3.92
2023-02-24T22:23:36.997Z,4.25
2023-02-24T22:26:08.869Z,5.75
2023-02-24T22:28:38.265Z,4.63
2023-02-24T22:33:33.813Z,5.22
2023-02-24T22:36:24.643Z,4.90
2023-02-24T22:38:51.543Z,5.75
2023-02-24T22:41:23.807Z,4.63
2023-02-24T22:43:50.883Z,4.80
2023-02-24T22:46:24.030Z,5.43
2023-02-24T22:48:50.777Z,4.95
2023-02-24T22:51:17.850Z,4.70
2023-02-24T22:53:46.652Z,4.88
2023-02-24T22:56:15.645Z,4.43
2023-02-24T22:58:43.284Z,5.88
2023-02-24T23:01:11.798Z,4.85
2023-02-24T23:03:40.025Z,4.38
2023-02-24T23:06:14.859Z,4.57
2023-02-24T23:08:43.125Z,4.32
2023-02-24T23:11:16.280Z,4.15
2023-02-24T23:13:44.645Z,4.18
2023-02-24T23:16:14.222Z,3.73
2023-02-24T23:18:41.021Z,5.22
2023-02-24T23:21:09.910Z,4.65
2023-02-24T23:23:37.294Z,4.60
2023-02-24T23:26:05.328Z,4.55
2023-02-24T23:28:31.901Z,4.72
2023-02-24T23:30:58.431Z,5.50
2023-02-24T23:33:24.968Z,5.25
2023-02-24T23:35:51.463Z,4.80
2023-02-24T23:38:18.204Z,4.93
2023-02-24T23:40:50.649Z,4.50
2023-02-24T23:43:17.746Z,4.72
2023-02-24T23:45:47.229Z,4.22
2023-02-24T23:48:14.280Z,4.30
2023-02-24T23:50:42.676Z,5.25
2023-02-24T23:53:09.995Z,4.50
2023-02-24T23:55:39.940Z,4.32
2023-02-24T23:58:06.625Z,4.47
